Time;durP1;ratioP1;P1;durP2;ratioP2;P2;SDS_P1;SDS_P2;PMS_P1;PMS_P2;Temp;Humidity;BMP_temperature;BMP_pressure;BME280_temperature;BME280_humidity;BME280_pressure;Samples;Min_cycle;Max_cycle;Signal;HPM_P1;HPM_P2
2023/02/10 00:02:20;;;;;;;;;68.75;54.50;;;;;7.34;100.00;103471.69;5076500;27;45537;-76
2023/02/10 00:04:46;;;;;;;;;63.50;47.00;;;;;7.37;100.00;103476.25;5078767;27;46302;-72
2023/02/10 00:07:11;;;;;;;;;74.25;54.50;;;;;7.35;100.00;103481.41;5077683;27;45370;-75
2023/02/10 00:09:37;;;;;;;;;72.50;55.75;;;;;7.39;100.00;103469.38;5074634;27;45375;-74
2023/02/10 00:12:02;;;;;;;;;77.50;59.00;;;;;7.39;100.00;103472.00;5055152;27;50843;-73
2023/02/10 00:14:28;;;;;;;;;75.25;55.00;;;;;7.40;100.00;103481.69;5088862;27;45744;-73
2023/02/10 00:16:54;;;;;;;;;74.25;52.25;;;;;7.44;100.00;103480.19;5089983;27;45410;-74
2023/02/10 00:19:21;;;;;;;;;68.50;53.75;;;;;7.46;100.00;103475.97;5071917;27;45372;-74
2023/02/10 00:21:46;;;;;;;;;66.50;53.00;;;;;7.43;100.00;103465.25;5072310;27;45369;-74
2023/02/10 00:24:11;;;;;;;;;76.00;56.00;;;;;7.43;100.00;103470.50;5071354;27;58855;-73
2023/02/10 00:26:37;;;;;;;;;80.25;59.50;;;;;7.39;100.00;103460.56;5094976;27;53449;-75
2023/02/10 00:29:03;;;;;;;;;72.00;56.75;;;;;7.37;100.00;103467.47;5073553;27;45594;-73
2023/02/10 00:31:28;;;;;;;;;0.00;0.00;;;;;7.32;100.00;103462.81;5076728;27;45530;-73
2023/02/10 00:33:53;;;;;;;;;72.75;57.50;;;;;7.33;100.00;103464.63;5094193;27;46306;-76
2023/02/10 00:36:19;;;;;;;;;71.75;55.75;;;;;7.34;100.00;103461.16;5076597;27;46564;-74
2023/02/10 00:38:44;;;;;;;;;69.25;54.25;;;;;7.37;100.00;103467.47;5075244;27;45519;-75
2023/02/10 00:41:12;;;;;;;;;71.75;54.25;;;;;7.37;100.00;103468.38;5091161;27;45393;-73
2023/02/10 00:43:42;;;;;;;;;71.50;54.00;;;;;7.37;100.00;103467.47;5074460;27;46291;-73
2023/02/10 00:46:08;;;;;;;;;76.50;56.00;;;;;7.36;100.00;103463.94;5090896;27;45559;-73
2023/02/10 00:48:33;;;;;;;;;78.50;58.25;;;;;7.35;100.00;103452.50;5061128;27;45425;-74
2023/02/10 00:50:58;;;;;;;;;69.50;49.75;;;;;7.42;100.00;103468.69;5071236;27;45327;-73
2023/02/10 00:53:24;;;;;;;;;70.00;53.25;;;;;7.40;100.00;103465.03;5075372;27;62126;-73
2023/02/10 00:55:50;;;;;;;;;80.75;58.50;;;;;7.43;100.00;103466.13;5075455;27;45494;-73
2023/02/10 00:58:15;;;;;;;;;76.75;54.50;;;;;7.45;100.00;103474.13;5095918;27;50331;-74
2023/02/10 01:00:41;;;;;;;;;71.00;55.00;;;;;7.43;100.00;103455.63;5069992;27;53604;-75
2023/02/10 01:03:06;;;;;;;;;76.50;55.75;;;;;7.45;100.00;103461.88;5050951;27;48134;-76
2023/02/10 01:05:31;;;;;;;;;75.50;55.50;;;;;7.46;100.00;103460.19;5089946;27;49388;-75
2023/02/10 01:07:57;;;;;;;;;74.00;55.75;;;;;7.50;100.00;103467.44;5084330;27;54800;-73
2023/02/10 01:10:23;;;;;;;;;72.50;55.75;;;;;7.52;100.00;103473.75;5092162;27;46372;-74
2023/02/10 01:12:48;;;;;;;;;68.75;55.25;;;;;7.55;100.00;103463.41;5096018;27;45732;-74
2023/02/10 01:15:14;;;;;;;;;75.00;56.50;;;;;7.56;100.00;103465.22;5094912;27;52338;-76
2023/02/10 01:17:39;;;;;;;;;75.50;56.00;;;;;7.57;100.00;103459.19;5094311;27;45588;-77
2023/02/10 01:20:06;;;;;;;;;71.50;55.25;;;;;7.60;100.00;103460.25;5076374;27;49819;-77
2023/02/10 01:22:35;;;;;;;;;75.75;58.25;;;;;7.61;100.00;103459.44;5089989;27;45896;-74
2023/02/10 01:25:00;;;;;;;;;72.25;55.25;;;;;7.61;100.00;103453.28;5085227;27;45570;-73
2023/02/10 01:27:25;;;;;;;;;71.00;53.50;;;;;7.63;100.00;103458.66;5071229;27;45478;-76
2023/02/10 01:29:51;;;;;;;;;75.50;54.00;;;;;7.67;100.00;103471.19;5069342;27;51125;-74
2023/02/10 01:32:16;;;;;;;;;67.50;49.00;;;;;7.68;100.00;103470.41;5087030;27;53083;-74
2023/02/10 01:34:41;;;;;;;;;76.50;55.50;;;;;7.66;100.00;103451.84;5096929;27;60059;-75
2023/02/10 01:37:07;;;;;;;;;75.25;54.00;;;;;7.69;100.00;103464.31;5093028;27;54365;-74
2023/02/10 01:39:32;;;;;;;;;68.00;51.75;;;;;7.68;100.00;103471.31;5092358;27;45536;-73
2023/02/10 01:41:58;;;;;;;;;66.25;48.50;;;;;7.69;100.00;103459.06;5097344;27;46403;-76
2023/02/10 01:44:23;;;;;;;;;57.00;46.75;;;;;7.70;100.00;103466.13;5077418;27;45493;-74
2023/02/10 01:46:48;;;;;;;;;76.50;54.25;;;;;7.70;100.00;103472.28;5098475;27;45443;-73
2023/02/10 01:49:19;;;;;;;;;61.00;47.50;;;;;7.66;100.00;103465.00;5077651;27;45472;-73
2023/02/10 01:51:49;;;;;;;;;72.50;56.25;;;;;7.71;100.00;103468.84;5080331;27;46594;-74
2023/02/10 01:54:19;;;;;;;;;72.00;52.25;;;;;7.68;100.00;103463.41;5077776;27;46508;-73
2023/02/10 01:56:46;;;;;;;;;70.00;52.00;;;;;7.73;100.00;103476.88;5098556;27;45198;-73
2023/02/10 01:59:12;;;;;;;;;68.75;52.00;;;;;7.74;100.00;103474.31;5073351;27;45265;-73
2023/02/10 02:01:38;;;;;;;;;76.00;56.50;;;;;7.74;100.00;103478.69;5075490;27;46526;-73
2023/02/10 02:04:03;;;;;;;;;65.50;51.25;;;;;7.74;100.00;103473.41;5074456;27;57005;-75
2023/02/10 02:06:29;;;;;;;;;67.25;51.75;;;;;7.77;100.00;103481.47;5074193;27;45556;-74
2023/02/10 02:08:54;;;;;;;;;68.00;53.50;;;;;7.79;100.00;103478.16;5076074;27;48844;-75
2023/02/10 02:11:46;;;;;;;;;66.50;53.50;;;;;7.79;100.00;103470.28;5095295;27;61561;-75
2023/02/10 02:14:21;;;;;;;;;72.25;52.00;;;;;7.80;100.00;103464.19;5053907;27;45570;-73
2023/02/10 02:17:24;;;;;;;;;62.50;49.25;;;;;7.80;100.00;103468.53;5094610;27;45455;-73
2023/02/10 02:20:42;;;;;;;;;66.75;50.25;;;;;7.81;100.00;103460.75;5015502;28;45484;-73
2023/02/10 02:23:26;;;;;;;;;68.75;54.00;;;;;7.82;100.00;103464.28;5014280;28;45795;-74
2023/02/10 02:25:57;;;;;;;;;70.75;48.00;;;;;7.82;100.00;103470.44;5088902;27;45346;-73
2023/02/10 02:28:47;;;;;;;;;62.50;48.00;;;;;7.82;100.00;103473.06;5096297;27;45701;-74
2023/02/10 02:31:31;;;;;;;;;55.75;46.75;;;;;7.82;100.00;103461.66;5095065;27;45498;-75
2023/02/10 02:34:10;;;;;;;;;64.00;46.00;;;;;7.85;100.00;103472.38;5093681;27;46977;-74
2023/02/10 02:36:47;;;;;;;;;61.25;48.25;;;;;7.85;100.00;103464.50;5080231;27;45471;-74
2023/02/10 02:39:13;;;;;;;;;61.00;44.50;;;;;7.83;100.00;103461.78;5090491;27;45472;-74
2023/02/10 02:41:38;;;;;;;;;62.25;47.25;;;;;7.84;100.00;103458.31;5080232;27;45489;-73
2023/02/10 02:44:05;;;;;;;;;65.75;49.00;;;;;7.88;100.00;103468.25;5075379;27;60745;-74
2023/02/10 02:46:33;;;;;;;;;59.75;44.00;;;;;7.90;100.00;103470.06;5096404;27;45237;-74
2023/02/10 02:49:13;;;;;;;;;61.25;46.75;;;;;7.89;100.00;103461.25;5096952;27;45545;-74
2023/02/10 02:51:51;;;;;;;;;61.00;44.75;;;;;7.88;100.00;103468.25;5077897;27;45483;-75
2023/02/10 02:54:45;;;;;;;;;57.25;43.75;;;;;7.92;100.00;103471.06;5074419;28;47491;-74
2023/02/10 02:57:37;;;;;;;;;57.50;43.75;;;;;7.91;100.00;103467.50;5054578;27;45571;-75
2023/02/10 03:00:07;;;;;;;;;62.75;46.75;;;;;7.95;100.00;103479.16;5087581;27;45619;-75
2023/02/10 03:02:34;;;;;;;;;49.25;39.25;;;;;7.93;100.00;103476.41;5094734;27;45538;-75
2023/02/10 03:04:59;;;;;;;;;52.75;41.00;;;;;7.92;100.00;103478.94;5095864;27;63600;-74
2023/02/10 03:07:25;;;;;;;;;48.75;39.50;;;;;7.92;100.00;103468.41;5069924;27;60794;-73
2023/02/10 03:09:51;;;;;;;;;53.25;43.25;;;;;7.85;100.00;103451.34;5096222;27;45590;-73
2023/02/10 03:12:16;;;;;;;;;64.00;45.50;;;;;7.92;100.00;103468.41;5078503;27;45529;-75
2023/02/10 03:14:41;;;;;;;;;58.75;45.25;;;;;7.91;100.00;103467.50;5077539;27;63974;-74
2023/02/10 03:17:07;;;;;;;;;54.75;41.00;;;;;7.91;100.00;103467.50;5074935;27;55282;-74
2023/02/10 03:19:32;;;;;;;;;55.50;42.75;;;;;7.91;100.00;103471.88;5094397;27;54314;-74
2023/02/10 03:21:58;;;;;;;;;48.75;39.25;;;;;7.87;100.00;103460.22;5094357;27;45270;-73
2023/02/10 03:24:23;;;;;;;;;57.25;40.75;;;;;7.91;100.00;103467.50;5093362;27;64800;-74
2023/02/10 03:26:49;;;;;;;;;52.25;42.00;;;;;7.91;100.00;103472.78;5093615;27;45448;-74
2023/02/10 03:29:15;;;;;;;;;56.50;41.75;;;;;7.91;100.00;103471.88;5095080;27;45487;-74
2023/02/10 03:31:41;;;;;;;;;58.00;42.50;;;;;7.92;100.00;103473.69;5078677;27;45481;-73
2023/02/10 03:34:06;;;;;;;;;44.50;37.50;;;;;7.92;100.00;103471.06;5070548;27;59001;-75
2023/02/10 03:36:33;;;;;;;;;47.50;39.25;;;;;7.93;100.00;103470.22;5078721;27;45266;-75
2023/02/10 03:38:59;;;;;;;;;58.00;38.50;;;;;7.94;100.00;103466.81;5072212;27;45478;-75
2023/02/10 03:41:24;;;;;;;;;54.25;38.75;;;;;7.96;100.00;103465.19;5078967;27;45548;-74
2023/02/10 03:43:50;;;;;;;;;43.00;35.25;;;;;7.97;100.00;103472.25;5078594;27;45710;-74
2023/02/10 03:46:15;;;;;;;;;43.00;34.75;;;;;7.95;100.00;103460.75;5097090;27;59883;-73
2023/02/10 03:48:40;;;;;;;;;52.75;39.00;;;;;7.99;100.00;103462.72;5078478;27;52028;-74
2023/02/10 03:51:07;;;;;;;;;47.75;39.00;;;;;7.96;100.00;103455.56;5095846;27;49290;-75
2023/02/10 03:53:33;;;;;;;;;53.25;38.50;;;;;8.00;100.00;103467.19;5079364;27;46123;-74
2023/02/10 03:55:58;;;;;;;;;48.50;37.50;;;;;8.00;100.00;103465.47;5078472;27;45356;-73
2023/02/10 03:58:24;;;;;;;;;46.00;36.25;;;;;7.98;100.00;103464.44;5079807;27;45379;-77
2023/02/10 04:00:49;;;;;;;;;41.50;34.50;;;;;8.01;100.00;103474.28;5077691;27;45423;-75
2023/02/10 04:03:15;;;;;;;;;48.50;38.75;;;;;7.96;100.00;103460.81;5096581;27;59161;-74
2023/02/10 04:05:40;;;;;;;;;40.00;37.50;;;;;7.99;100.00;103462.72;5078410;27;45290;-73
2023/02/10 04:08:06;;;;;;;;;49.50;38.00;;;;;7.98;100.00;103466.19;5095481;27;48541;-77
2023/02/10 04:10:32;;;;;;;;;50.50;37.75;;;;;7.99;100.00;103481.13;5097432;27;45522;-75
2023/02/10 04:12:57;;;;;;;;;53.25;36.50;;;;;7.99;100.00;103462.72;5078345;27;45642;-74
2023/02/10 04:15:23;;;;;;;;;47.25;36.00;;;;;7.98;100.00;103461.81;5078184;27;52134;-75
2023/02/10 04:17:48;;;;;;;;;44.00;34.75;;;;;7.97;100.00;103462.63;5096465;27;53882;-75
2023/02/10 04:20:14;;;;;;;;;39.25;30.50;;;;;7.97;100.00;103464.38;5077096;27;50480;-73
2023/02/10 04:22:39;;;;;;;;;43.25;32.25;;;;;8.03;100.00;103473.53;5097012;27;45522;-76
2023/02/10 04:25:05;;;;;;;;;37.00;33.50;;;;;8.04;100.00;103467.50;5077949;27;45469;-74
2023/02/10 04:27:30;;;;;;;;;37.50;35.75;;;;;8.04;100.00;103480.66;5097014;27;45403;-75
2023/02/10 04:29:56;;;;;;;;;49.25;35.25;;;;;8.08;100.00;103484.38;5091573;27;56116;-73
2023/02/10 04:32:21;;;;;;;;;41.25;33.50;;;;;8.11;100.00;103500.38;5095875;27;61651;-75
2023/02/10 04:34:47;;;;;;;;;48.50;36.75;;;;;8.13;100.00;103497.00;5078382;27;45319;-74
2023/02/10 04:37:12;;;;;;;;;47.75;33.00;;;;;8.15;100.00;103507.66;5096448;27;45261;-76
2023/02/10 04:39:38;;;;;;;;;39.25;34.50;;;;;8.13;100.00;103496.09;5078397;27;45588;-73
2023/02/10 04:42:03;;;;;;;;;45.25;38.00;;;;;8.15;100.00;103499.75;5093796;27;58400;-74
2023/02/10 04:44:29;;;;;;;;;42.50;36.50;;;;;8.11;100.00;103501.28;5061187;27;50380;-73
2023/02/10 04:46:54;;;;;;;;;49.25;35.25;;;;;8.14;100.00;103508.44;5096597;27;45567;-74
2023/02/10 04:49:19;;;;;;;;;44.25;32.75;;;;;8.17;100.00;103499.84;5077589;27;47234;-73
2023/02/10 04:51:45;;;;;;;;;40.75;32.75;;;;;8.18;100.00;103510.47;5060508;27;47509;-73
2023/02/10 04:54:10;;;;;;;;;48.25;36.75;;;;;8.17;100.00;103503.38;5074087;27;45357;-75
2023/02/10 04:56:35;;;;;;;;;49.00;39.00;;;;;8.19;100.00;103511.38;5075588;27;50289;-74
2023/02/10 04:59:01;;;;;;;;;37.00;30.25;;;;;8.17;100.00;103492.84;5096834;27;45487;-73
2023/02/10 05:01:26;;;;;;;;;50.25;36.75;;;;;8.21;100.00;103492.25;5095311;27;63916;-75
2023/02/10 05:03:51;;;;;;;;;32.00;29.00;;;;;8.21;100.00;103494.88;5095316;27;45407;-74
2023/02/10 05:06:17;;;;;;;;;40.50;32.00;;;;;8.24;100.00;103505.59;5095129;27;54839;-74
2023/02/10 05:08:43;;;;;;;;;37.75;33.50;;;;;8.24;100.00;103505.59;5094738;27;45388;-73
2023/02/10 05:11:09;;;;;;;;;41.00;30.00;;;;;8.24;100.00;103502.03;5077507;27;46072;-74
2023/02/10 05:13:35;;;;;;;;;34.75;31.75;;;;;8.25;100.00;103499.50;5077929;27;45458;-73
2023/02/10 05:16:02;;;;;;;;;39.00;30.75;;;;;8.27;100.00;103500.53;5077583;27;45559;-73
2023/02/10 05:18:30;;;;;;;;;40.25;26.00;;;;;8.30;100.00;103505.97;5078119;27;45561;-73
2023/02/10 05:20:57;;;;;;;;;31.75;28.50;;;;;8.27;100.00;103500.53;5077354;27;46096;-75
2023/02/10 05:23:22;;;;;;;;;32.50;31.00;;;;;8.31;100.00;103505.19;5075274;27;45592;-73
2023/02/10 05:25:48;;;;;;;;;39.25;33.25;;;;;8.31;100.00;103498.97;5093975;27;45624;-75
2023/02/10 05:28:13;;;;;;;;;41.00;31.00;;;;;8.33;100.00;103506.16;5095804;27;45223;-74
2023/02/10 05:30:38;;;;;;;;;43.00;33.25;;;;;8.33;100.00;103507.91;5092796;27;60591;-75
2023/02/10 05:33:04;;;;;;;;;42.75;31.25;;;;;8.35;100.00;103506.25;5095598;27;53924;-74
2023/02/10 05:35:29;;;;;;;;;39.00;30.00;;;;;8.36;100.00;103505.47;5093277;27;54370;-74
2023/02/10 05:37:54;;;;;;;;;34.75;26.50;;;;;8.36;100.00;103514.31;5077694;27;45467;-73
2023/02/10 05:40:20;;;;;;;;;31.75;28.50;;;;;8.36;100.00;103503.78;5094774;27;45579;-74
2023/02/10 05:42:45;;;;;;;;;38.50;29.00;;;;;8.38;100.00;103509.13;5057625;27;62082;-76
2023/02/10 05:45:10;;;;;;;;;41.25;33.00;;;;;8.35;100.00;103517.69;5087403;27;52371;-75
2023/02/10 05:47:36;;;;;;;;;40.50;30.25;;;;;8.35;100.00;103522.06;5092909;27;45615;-75
2023/02/10 05:50:01;;;;;;;;;15.00;8.00;;;;;8.34;100.00;103520.25;5075739;27;46701;-77
2023/02/10 05:52:26;;;;;;;;;39.00;25.75;;;;;8.34;100.00;103530.78;5090956;27;57606;-74
2023/02/10 05:54:52;;;;;;;;;30.25;26.00;;;;;8.34;100.00;103530.78;5076340;27;45445;-75
2023/02/10 05:57:17;;;;;;;;;31.00;26.75;;;;;8.30;100.00;103515.59;5094140;27;50892;-74
2023/02/10 05:59:42;;;;;;;;;32.25;25.25;;;;;8.27;100.00;103526.84;5094339;27;61701;-74
2023/02/10 06:02:08;;;;;;;;;32.50;27.00;;;;;8.25;100.00;103541.63;5094380;27;45456;-75
2023/02/10 06:04:33;;;;;;;;;23.50;23.00;;;;;8.22;100.00;103532.63;5090455;27;46796;-75
2023/02/10 06:06:59;;;;;;;;;33.75;23.25;;;;;8.23;100.00;103534.44;5095141;27;54154;-74
2023/02/10 06:09:26;;;;;;;;;21.50;17.25;;;;;8.21;100.00;103536.09;5075812;27;45695;-74
2023/02/10 06:11:51;;;;;;;;;32.25;24.75;;;;;8.16;100.00;103532.25;5076885;27;45486;-76
2023/02/10 06:14:17;;;;;;;;;32.50;22.75;;;;;8.14;100.00;103540.94;5095242;27;45384;-75
2023/02/10 06:16:42;;;;;;;;;22.00;20.50;;;;;8.09;100.00;103533.56;5093476;27;45507;-74
2023/02/10 06:19:08;;;;;;;;;35.25;25.75;;;;;8.08;100.00;103535.28;5094456;27;50228;-74
2023/02/10 06:21:33;;;;;;;;;27.50;21.50;;;;;8.08;100.00;103531.72;5077458;27;54622;-76
2023/02/10 06:23:58;;;;;;;;;28.00;23.50;;;;;8.07;100.00;103538.72;5080439;27;45489;-73
2023/02/10 06:26:24;;;;;;;;;29.50;21.50;;;;;8.05;100.00;103534.19;5097931;27;47788;-75
2023/02/10 06:28:49;;;;;;;;;26.00;22.50;;;;;8.05;100.00;103528.94;5090819;27;45876;-74
2023/02/10 06:31:15;;;;;;;;;28.75;25.25;;;;;8.05;100.00;103519.31;5095035;27;45431;-76
2023/02/10 06:33:40;;;;;;;;;29.00;22.00;;;;;8.01;100.00;103516.38;5098478;27;45301;-76
2023/02/10 06:36:07;;;;;;;;;31.25;24.25;;;;;8.05;100.00;103532.47;5080067;27;45401;-74
2023/02/10 06:38:33;;;;;;;;;30.25;27.50;;;;;8.07;100.00;103537.81;5079445;27;46388;-74
2023/02/10 06:40:59;;;;;;;;;33.50;26.50;;;;;8.08;100.00;103542.25;5080075;27;45546;-75
2023/02/10 06:43:24;;;;;;;;;27.75;23.75;;;;;8.08;100.00;103544.88;5079184;27;45491;-74
2023/02/10 06:45:50;;;;;;;;;32.00;22.75;;;;;8.07;100.00;103550.97;5079148;27;45381;-74
2023/02/10 06:48:15;;;;;;;;;26.25;24.50;;;;;8.06;100.00;103543.91;5096110;27;62873;-75
2023/02/10 06:50:40;;;;;;;;;23.25;18.25;;;;;8.06;100.00;103541.25;5059642;27;45574;-74
2023/02/10 06:53:06;;;;;;;;;24.75;21.50;;;;;8.08;100.00;103544.88;5098386;27;55367;-75
2023/02/10 06:55:31;;;;;;;;;29.50;24.00;;;;;8.09;100.00;103544.06;5099232;27;51500;-75
2023/02/10 06:58:00;;;;;;;;;29.25;22.75;;;;;8.06;100.00;103536.00;5082196;27;45481;-76
2023/02/10 07:00:25;;;;;;;;;25.75;22.50;;;;;8.06;100.00;103538.63;5076033;27;45944;-74
2023/02/10 07:02:51;;;;;;;;;25.00;22.00;;;;;8.09;100.00;103544.97;5090504;27;45593;-75
2023/02/10 07:05:16;;;;;;;;;31.50;22.50;;;;;8.10;100.00;103551.19;5094662;27;45486;-74
2023/02/10 07:07:42;;;;;;;;;31.00;21.25;;;;;8.09;100.00;103546.69;5089829;27;46554;-75
2023/02/10 07:10:07;;;;;;;;;25.25;20.00;;;;;8.06;100.00;103546.53;5076015;27;45396;-75
2023/02/10 07:12:33;;;;;;;;;24.50;21.25;;;;;8.09;100.00;103549.34;5076225;27;45309;-74
2023/02/10 07:14:58;;;;;;;;;18.25;18.00;;;;;8.11;100.00;103553.00;5067120;27;46596;-74
2023/02/10 07:17:24;;;;;;;;;39.50;26.75;;;;;8.08;100.00;103558.97;5090790;27;58337;-74
2023/02/10 07:19:49;;;;;;;;;31.50;21.25;;;;;8.08;100.00;103572.13;5065528;27;45919;-75
2023/02/10 07:22:14;;;;;;;;;26.00;22.75;;;;;8.09;100.00;103575.66;5071409;27;51864;-72
2023/02/10 07:24:40;;;;;;;;;25.00;19.00;;;;;8.11;100.00;103569.69;5071496;27;52219;-71
2023/02/10 07:27:05;;;;;;;;;27.00;20.75;;;;;8.13;100.00;103569.78;5094367;27;47100;-72
2023/02/10 07:29:31;;;;;;;;;28.75;25.00;;;;;8.18;100.00;103571.00;5095716;27;45427;-72
2023/02/10 07:31:59;;;;;;;;;31.25;24.75;;;;;8.16;100.00;103570.00;5066942;27;45512;-71
2023/02/10 07:34:25;;;;;;;;;31.25;25.00;;;;;8.19;100.00;103570.19;5073378;27;45641;-71
2023/02/10 07:36:53;;;;;;;;;29.75;20.75;;;;;8.18;100.00;103567.47;5073600;27;46759;-72
2023/02/10 07:39:28;;;;;;;;;30.25;24.75;;;;;8.14;100.00;103564.63;5073666;27;45454;-72
2023/02/10 07:41:53;;;;;;;;;30.75;24.50;;;;;8.12;100.00;103565.34;5076928;27;45808;-72
2023/02/10 07:44:20;;;;;;;;;24.25;21.00;;;;;8.06;100.00;103579.00;5090719;27;45447;-74
2023/02/10 07:46:46;;;;;;;;;28.00;24.00;;;;;8.06;100.00;103593.88;5078528;27;46482;-75
2023/02/10 07:49:12;;;;;;;;;22.25;18.75;;;;;8.09;100.00;103596.69;5078364;27;45686;-76
2023/02/10 07:51:37;;;;;;;;;23.25;20.50;;;;;8.09;100.00;103581.81;5069681;28;49508;-74
2023/02/10 07:54:03;;;;;;;;;29.50;21.50;;;;;8.16;100.00;103595.41;5072227;27;45693;-75
2023/02/10 07:56:28;;;;;;;;;22.00;22.00;;;;;8.20;100.00;103593.03;5086755;27;45526;-74
2023/02/10 07:58:53;;;;;;;;;27.50;24.25;;;;;8.23;100.00;103601.16;5071405;27;56195;-75
2023/02/10 08:01:19;;;;;;;;;26.50;23.75;;;;;8.30;100.00;103600.72;5201977;22;45711;-76
2023/02/10 08:03:44;;;;;;;;;28.25;22.00;;;;;8.30;100.00;103600.72;5085552;27;45535;-74
2023/02/10 08:06:09;;;;;;;;;29.00;21.50;;;;;8.36;100.00;103601.19;5092252;27;47618;-75
2023/02/10 08:08:35;;;;;;;;;31.75;20.50;;;;;8.40;100.00;103599.63;5090022;27;58504;-75
2023/02/10 08:11:06;;;;;;;;;29.00;22.25;;;;;8.46;100.00;103604.38;5095229;27;53781;-73
2023/02/10 08:13:32;;;;;;;;;27.00;23.75;;;;;8.51;100.00;103605.59;5092206;27;45543;-72
2023/02/10 08:15:57;;;;;;;;;36.50;26.50;;;;;8.55;100.00;103605.00;5092297;27;45761;-73
2023/02/10 08:18:23;;;;;;;;;23.50;20.75;;;;;8.62;100.00;103608.09;5090435;27;57879;-74
2023/02/10 08:20:48;;;;;;;;;23.50;21.00;;;;;8.63;100.00;103599.41;5091073;27;47102;-75
2023/02/10 08:23:16;;;;;;;;;28.75;21.75;;;;;8.73;100.00;103600.88;5094302;27;45572;-74
2023/02/10 08:25:41;;;;;;;;;28.25;26.00;;;;;8.83;100.00;103607.63;5076063;27;47694;-76
2023/02/10 08:28:07;;;;;;;;;30.00;23.25;;;;;8.89;100.00;103608.00;5110286;27;45568;-75
2023/02/10 08:30:32;;;;;;;;;26.25;24.50;;;;;8.95;100.00;103613.69;5090021;27;45619;-75
2023/02/10 08:32:57;;;;;;;;;31.00;24.50;;;;;9.02;100.00;103617.59;5089200;27;45519;-75
2023/02/10 08:35:23;;;;;;;;;32.00;24.25;;;;;9.05;100.00;103623.94;5091889;27;46937;-75
2023/02/10 08:37:49;;;;;;;;;29.75;22.25;;;;;9.09;100.00;103625.06;5094405;27;45337;-75
2023/02/10 08:40:15;;;;;;;;;21.25;17.50;;;;;9.15;100.00;103626.34;5089919;27;50192;-74
2023/02/10 08:42:40;;;;;;;;;25.25;20.25;;;;;9.17;100.00;103622.09;5110256;27;45602;-74
2023/02/10 08:45:06;;;;;;;;;23.75;20.50;;;;;9.22;100.00;103605.66;5089397;27;45475;-75
2023/02/10 08:47:33;;;;;;;;;23.75;18.75;;;;;9.27;100.00;103609.44;5088744;27;45304;-74
2023/02/10 08:49:58;;;;;;;;;26.25;20.75;;;;;9.29;100.00;103607.84;5093738;27;45487;-75
2023/02/10 08:52:24;;;;;;;;;23.25;18.00;;;;;9.35;100.00;103616.13;5090920;27;45337;-74
2023/02/10 08:54:49;;;;;;;;;24.75;22.25;;;;;9.35;100.00;103622.28;5092387;27;45802;-74
2023/02/10 08:57:14;;;;;;;;;20.00;20.00;;;;;9.38;100.00;103626.88;5092810;27;47324;-74
2023/02/10 08:59:40;;;;;;;;;23.50;18.25;;;;;9.40;100.00;103631.41;5090958;27;45555;-76
2023/02/10 09:02:05;;;;;;;;;28.25;19.50;;;;;9.42;100.00;103619.19;5091874;27;45469;-75
2023/02/10 09:04:31;;;;;;;;;24.00;20.00;;;;;9.43;100.00;103617.50;5093539;27;46002;-74
2023/02/10 09:06:57;;;;;;;;;23.25;20.50;;;;;9.44;100.00;103624.59;5085404;27;45502;-73
2023/02/10 09:09:24;;;;;;;;;27.00;21.25;;;;;9.45;100.00;103621.13;5092455;27;45431;-74
2023/02/10 09:11:50;;;;;;;;;23.50;19.00;;;;;9.49;100.00;103611.69;5092657;27;45603;-74
2023/02/10 09:14:15;;;;;;;;;25.25;17.00;;;;;9.51;100.00;103626.78;5085880;27;45632;-75
2023/02/10 09:16:41;;;;;;;;;25.75;22.50;;;;;9.56;100.00;103621.78;5092596;27;45325;-74
2023/02/10 09:19:06;;;;;;;;;26.75;20.75;;;;;9.63;100.00;103618.69;5091605;27;51060;-74
2023/02/10 09:21:32;;;;;;;;;27.75;22.50;;;;;9.69;100.00;103611.13;5087402;27;45446;-74
2023/02/10 09:23:58;;;;;;;;;28.50;22.25;;;;;9.74;100.00;103607.03;5087678;27;46751;-74
2023/02/10 09:26:23;;;;;;;;;19.50;18.25;;;;;9.79;100.00;103618.75;5093723;27;59925;-75
2023/02/10 09:28:48;;;;;;;;;21.00;21.00;;;;;9.83;100.00;103612.84;5087814;27;45301;-74
2023/02/10 09:31:17;;;;;;;;;24.50;18.25;;;;;9.91;100.00;103613.31;5091964;27;45307;-76
2023/02/10 09:33:43;;;;;;;;;17.50;15.75;;;;;10.00;100.00;103612.91;5091875;27;45821;-74
2023/02/10 09:36:14;;;;;;;;;22.50;19.75;;;;;10.07;100.00;103620.41;5090958;27;45525;-76
2023/02/10 09:38:39;;;;;;;;;25.00;22.25;;;;;10.08;100.00;103617.84;5094196;27;45456;-74
2023/02/10 09:41:36;;;;;;;;;24.50;19.50;;;;;10.13;100.00;103618.09;5093987;27;46012;-73
2023/02/10 09:44:20;;;;;;;;;20.75;18.75;;;;;10.18;100.00;103617.53;5080123;27;45706;-76
2023/02/10 09:47:23;;;;;;;;;20.50;17.00;;;;;10.26;100.00;103620.66;5084838;27;45463;-75
2023/02/10 09:50:25;;;;;;;;;27.00;23.25;;;;;10.28;100.00;103632.22;5093002;27;45402;-75
2023/02/10 09:53:09;;;;;;;;;23.25;20.75;;;;;10.32;100.00;103636.84;5083079;27;45544;-75
2023/02/10 09:55:39;;;;;;;;;22.75;19.75;;;;;10.35;100.00;103625.56;5094976;27;48223;-79
2023/02/10 09:58:09;;;;;;;;;21.50;19.00;;;;;10.43;100.00;103637.44;5096922;27;45620;-77
2023/02/10 10:00:39;;;;;;;;;25.75;19.75;;;;;10.46;100.00;103630.59;5092951;27;45521;-76
2023/02/10 10:03:07;;;;;;;;;24.25;20.00;;;;;10.52;100.00;103623.84;5090073;27;45547;-76
2023/02/10 10:05:52;;;;;;;;;20.50;17.50;;;;;10.59;100.00;103629.56;5094257;27;45675;-77
2023/02/10 10:08:37;;;;;;;;;28.50;22.00;;;;;10.62;100.00;103624.44;5090632;27;45474;-74
2023/02/10 10:11:09;;;;;;;;;20.00;18.50;;;;;10.63;100.00;103641.22;5092443;27;45703;-75
2023/02/10 10:13:34;;;;;;;;;19.25;16.00;;;;;10.61;100.00;103634.94;5094315;27;45955;-77
2023/02/10 10:16:29;;;;;;;;;21.00;15.00;;;;;10.61;100.00;103648.16;5094859;27;48132;-75
2023/02/10 10:19:07;;;;;;;;;29.25;19.50;;;;;10.53;100.00;103647.72;5089269;27;45525;-75
2023/02/10 10:21:43;;;;;;;;;20.50;18.25;;;;;10.54;100.00;103638.94;5092019;27;45517;-77
2023/02/10 10:24:30;;;;;;;;;25.75;20.00;;;;;10.61;100.00;103640.22;5096016;27;45581;-74
2023/02/10 10:27:12;;;;;;;;;20.50;17.50;;;;;10.68;100.00;103645.03;5090746;27;46655;-74
2023/02/10 10:29:43;;;;;;;;;20.00;17.00;;;;;10.77;100.00;103639.34;5093021;27;45237;-74
2023/02/10 10:32:18;;;;;;;;;25.00;20.25;;;;;10.87;100.00;103639.94;5094099;27;47198;-75
2023/02/10 10:34:51;;;;;;;;;20.75;15.00;;;;;10.99;100.00;103644.97;5093971;27;46975;-75
2023/02/10 10:37:23;;;;;;;;;29.00;23.50;;;;;11.05;100.00;103652.34;5095505;27;46130;-75
2023/02/10 10:39:52;;;;;;;;;21.75;21.75;;;;;11.05;100.00;103647.03;5091096;27;46152;-74
2023/02/10 10:42:42;;;;;;;;;30.00;23.50;;;;;11.08;100.00;103656.06;5086118;27;45492;-76
2023/02/10 10:45:14;;;;;;;;;20.50;16.50;;;;;11.14;100.00;103656.38;5084992;27;45416;-75
2023/02/10 10:47:48;;;;;;;;;27.75;24.75;;;;;11.17;100.00;103660.91;5092503;27;45523;-77
2023/02/10 10:50:17;;;;;;;;;27.75;22.25;;;;;11.18;100.00;103663.63;5090691;27;45521;-74
2023/02/10 10:52:43;;;;;;;;;26.25;21.75;;;;;11.21;100.00;103652.31;5095345;27;45466;-74
2023/02/10 10:55:16;;;;;;;;;25.25;23.50;;;;;11.22;100.00;103657.69;5090361;27;45468;-74
2023/02/10 10:57:42;;;;;;;;;33.75;25.25;;;;;11.28;100.00;103658.00;5093022;27;46259;-73
2023/02/10 11:00:22;;;;;;;;;26.50;21.00;;;;;11.28;100.00;103651.81;5094110;27;55620;-73
2023/02/10 11:02:55;;;;;;;;;30.50;26.75;;;;;11.26;100.00;103653.47;5076693;27;45515;-73
2023/02/10 11:05:21;;;;;;;;;28.25;23.75;;;;;11.28;100.00;103638.59;5094163;27;47055;-73
2023/02/10 11:07:49;;;;;;;;;28.25;24.25;;;;;11.31;100.00;103643.16;5093215;27;47429;-73
2023/02/10 11:10:24;;;;;;;;;25.25;21.50;;;;;11.25;100.00;103627.88;5087994;27;45533;-76
2023/02/10 11:12:49;;;;;;;;;27.00;23.50;;;;;11.26;100.00;103633.22;5095702;27;45402;-73
2023/02/10 11:15:37;;;;;;;;;25.75;21.25;;;;;11.25;100.00;103627.88;5094792;27;45920;-73